Marble Canyon, AZ (86036)

8:10 PM MST on September 21, 2014 (GMT -0700)
HADS USRCRN SITE AT GLEN CANYON NRA N AZ US | Change Station
CLOSE
Current Station
Personal Weather Station
Location: Marble Canyon, AZ
Elevation: 3270 ft
Nearby Weather Stations

Elev 3270 ft 36.86 °N, 111.60 °W | Updated 111 days ago

Clear
Clear
73 °F
Feels Like 73 °F
N
3
Wind Variable Wind from SW
Gusts 6 mph

Today
High -- | Low -- °F
--% Chance of Precip.
Yesterday
High -- | Low -- °F
Precip. -- in
6:13 AM 6:24 PM
Waning Crescent, 4% visible
Pressure 29.93 in
Visibility 10.0 miles
Clouds Clear
Dew Point 54 °F
Humidity 48%
Rainfall -999.00 in
Snow Depth 1 in , 0 in , 0 in
UV 0 out of 12
Pollen 1.60 out of 12
Air Quality Not available.
Flu Activity Not available.
METAR KPGA 220253Z AUTO 28003KT 10SM CLR 24/12 A3009 RMK AO2 SLP133 T02440122 53005

More Conditions Fewer Conditions

Pressure 29.93 in
Visibility 10.0 miles
Clouds Clear
Dew Point 54 °F
Humidity 48%
Rainfall -999.00 in
Snow Depth 1 in , 0 in , 0 in
UV 0 out of 12
Pollen 1.60 out of 12
Air Quality Not available.
Flu Activity Not available.
METAR KPGA 220253Z AUTO 28003KT 10SM CLR 24/12 A3009 RMK AO2 SLP133 T02440122 53005

More Conditions Fewer Conditions

10-Day Weather Forecast

Almanac

Astronomy

Sep. 21, 2014 Rise Set
Actual Time 6:13 AM MST 6:24 PM MST
Civil Twilight 5:47 AM MST 6:50 PM MST
Nautical Twilight 5:17 AM MST 7:20 PM MST
Astronomical Twilight 4:46 AM MST 7:51 PM MST
Moon 3:53 AM MST (9/21) 5:00 PM MST (9/21)
Length of Visible Light 13h 02m
Length of Day
12h 11m
Tomorrow will be 2m 20s shorter.
Waning Crescent, 4% of the Moon is Illuminated
Today
Waning Crescent
Sep 24
New
Oct 1
First Quarter
Oct 8
Full
Oct 15
Last Quarter

Today's Extremes

State Highs State Lows

Community

WunderPhotos

Upload Photos

1,755,371 photos uploaded!

WunderBlogs® & News

Nearby

Snow Depth

Station Depth Elevation
Workman Creek 1 in 6900 ft
Maverick Fork 0 in 9200 ft
Beaver Head 0 in 7990 ft
Snowslide Canyon 0 in 9730 ft
Wildcat 0 in 7850 ft

Earthquake Activity

City Distance Mag. Time & Date
No recent earthquake activity has been reported nearby.
Minimum magnitude displayed is 2.5.

Coastal Water Temperatures

Place Temperature
No Stations Reporting

Nearby Weather Stations